createdAt,value
2019-02-02T00:02:19.752Z,13.27
2019-02-02T00:04:49.973Z,12.43
2019-02-02T00:07:20.282Z,11.53
2019-02-02T00:09:50.084Z,13.00
2019-02-02T00:12:19.768Z,13.40
2019-02-02T00:14:50.189Z,12.03
2019-02-02T00:17:21.618Z,13.10
2019-02-02T00:19:51.598Z,11.83
2019-02-02T00:22:21.309Z,16.87
2019-02-02T00:24:51.344Z,13.03
2019-02-02T00:27:21.356Z,14.00
2019-02-02T00:29:52.177Z,12.77
2019-02-02T00:32:22.898Z,13.13
2019-02-02T00:34:52.506Z,12.60
2019-02-02T00:37:22.169Z,13.37
2019-02-02T00:39:52.044Z,13.70
2019-02-02T00:42:21.691Z,13.50
2019-02-02T00:44:51.390Z,15.50
2019-02-02T00:47:21.086Z,13.57
2019-02-02T00:49:51.305Z,13.53
2019-02-02T00:52:22.050Z,14.90
2019-02-02T00:54:51.873Z,14.03
2019-02-02T00:57:22.116Z,14.37
2019-02-02T00:59:51.848Z,13.53
2019-02-02T01:02:21.761Z,15.30
2019-02-02T01:04:51.568Z,14.03
2019-02-02T01:07:21.564Z,14.80
2019-02-02T01:09:51.974Z,14.23
2019-02-02T01:12:22.739Z,14.40
2019-02-02T01:18:52.613Z,13.53
2019-02-02T01:21:22.890Z,14.07
2019-02-02T01:23:52.790Z,15.07
2019-02-02T01:26:22.672Z,13.90
2019-02-02T01:28:52.912Z,16.70
2019-02-02T01:31:22.607Z,14.00
2019-02-02T01:33:52.396Z,14.50
2019-02-02T01:36:22.111Z,12.83
2019-02-02T01:38:51.763Z,15.63
2019-02-02T01:41:21.893Z,14.73
2019-02-02T01:43:51.553Z,12.83
2019-02-02T01:46:21.675Z,12.73
2019-02-02T01:48:51.684Z,14.40
2019-02-02T01:51:21.466Z,14.67
2019-02-02T01:53:51.056Z,14.17
2019-02-02T01:56:20.870Z,12.33
2019-02-02T01:58:50.679Z,12.37
2019-02-02T02:01:20.394Z,13.60
2019-02-02T02:03:50.368Z,17.07
2019-02-02T02:06:19.968Z,12.90
2019-02-02T02:08:49.703Z,14.07
2019-02-02T02:11:19.788Z,12.60
2019-02-02T02:13:49.458Z,12.43
2019-02-02T02:16:19.069Z,18.00
2019-02-02T02:18:48.813Z,16.00
2019-02-02T02:21:18.549Z,13.57
2019-02-02T02:23:48.160Z,16.00
2019-02-02T02:26:18.391Z,13.77
2019-02-02T02:28:48.880Z,14.37
2019-02-02T02:31:19.375Z,16.40
2019-02-02T02:33:49.118Z,12.30
2019-02-02T02:36:19.025Z,12.10
2019-02-02T02:38:48.688Z,11.60
2019-02-02T02:41:18.268Z,12.30
2019-02-02T02:43:48.195Z,14.43
2019-02-02T02:46:17.840Z,13.93
2019-02-02T02:48:48.102Z,16.83
2019-02-02T02:51:17.685Z,14.13
2019-02-02T02:53:47.680Z,13.40
2019-02-02T02:56:17.300Z,12.00
2019-02-02T02:58:47.025Z,12.57
2019-02-02T03:01:16.685Z,13.10
2019-02-02T03:03:46.808Z,11.70
2019-02-02T03:06:16.864Z,13.80
2019-02-02T03:08:46.527Z,12.63
2019-02-02T03:11:16.080Z,14.10
2019-02-02T03:13:45.898Z,12.47
2019-02-02T03:16:15.484Z,14.47
2019-02-02T03:18:45.295Z,11.03
2019-02-02T03:21:14.873Z,12.70
2019-02-02T03:23:45.093Z,15.17
2019-02-02T03:26:14.785Z,16.10
2019-02-02T03:28:53.186Z,10.40
2019-02-02T03:31:15.826Z,10.87
2019-02-02T03:33:45.736Z,11.33
2019-02-02T03:36:15.399Z,13.03
2019-02-02T03:38:45.157Z,12.30
2019-02-02T03:41:15.031Z,13.40
2019-02-02T03:43:44.912Z,11.10
2019-02-02T03:46:14.469Z,14.77
2019-02-02T03:48:44.130Z,14.20
2019-02-02T03:51:13.775Z,14.33
2019-02-02T03:53:43.675Z,9.90
2019-02-02T03:56:13.341Z,13.43
2019-02-02T03:58:43.352Z,16.57
2019-02-02T04:01:12.996Z,12.97
2019-02-02T04:03:42.653Z,14.87
2019-02-02T04:06:12.306Z,15.33
2019-02-02T04:08:41.969Z,12.30
2019-02-02T04:11:12.089Z,13.57
2019-02-02T04:13:41.787Z,14.50
2019-02-02T04:16:11.342Z,15.27
2019-02-02T04:18:41.066Z,11.73
2019-02-02T04:21:10.991Z,15.20
2019-02-02T04:23:40.728Z,13.60
2019-02-02T04:26:10.824Z,11.57
2019-02-02T04:28:40.527Z,14.43
2019-02-02T04:31:10.774Z,15.00
2019-02-02T04:33:40.970Z,14.03
2019-02-02T04:36:10.914Z,12.63
2019-02-02T04:38:40.568Z,15.43
2019-02-02T04:41:10.516Z,12.40
2019-02-02T04:43:40.157Z,12.07
2019-02-02T04:46:09.804Z,14.03
2019-02-02T04:48:39.482Z,16.33
2019-02-02T04:51:09.233Z,14.47
2019-02-02T04:53:39.515Z,11.80
2019-02-02T04:56:09.168Z,11.33
2019-02-02T04:58:38.728Z,10.47
2019-02-02T05:01:08.426Z,10.97
2019-02-02T05:03:38.007Z,10.37
2019-02-02T05:06:07.785Z,9.60
2019-02-02T05:08:37.531Z,13.87
2019-02-02T05:11:07.465Z,10.43
2019-02-02T05:13:37.649Z,11.27
2019-02-02T05:16:07.800Z,13.03
2019-02-02T05:18:37.760Z,10.83
2019-02-02T05:21:07.565Z,13.77
2019-02-02T05:23:37.504Z,9.77
2019-02-02T05:26:07.412Z,13.30
2019-02-02T05:28:37.519Z,16.33
2019-02-02T05:31:07.287Z,16.67
2019-02-02T05:33:37.393Z,12.17
2019-02-02T05:36:07.197Z,16.90
2019-02-02T05:38:37.082Z,11.37
2019-02-02T05:41:06.930Z,11.07
2019-02-02T05:43:36.824Z,10.60
2019-02-02T05:46:07.047Z,13.00
2019-02-02T05:48:37.558Z,15.10
2019-02-02T05:51:07.361Z,13.73
2019-02-02T05:53:37.544Z,15.43
2019-02-02T05:56:07.342Z,15.23
2019-02-02T05:58:37.202Z,14.40
2019-02-02T06:01:08.700Z,10.90
2019-02-02T06:03:38.769Z,14.90
2019-02-02T06:06:08.635Z,10.43
2019-02-02T06:08:38.257Z,10.43
2019-02-02T06:11:07.971Z,12.17
2019-02-02T06:13:37.873Z,11.70
2019-02-02T06:16:07.437Z,15.50
2019-02-02T06:18:37.448Z,12.67
2019-02-02T06:21:07.100Z,15.27
2019-02-02T06:23:36.865Z,13.80
2019-02-02T06:26:06.631Z,11.63
2019-02-02T06:28:38.428Z,12.37
2019-02-02T06:31:09.733Z,10.97
2019-02-02T06:33:39.396Z,15.90
2019-02-02T06:36:28.042Z,15.57
2019-02-02T06:38:57.875Z,11.80
2019-02-02T06:41:27.808Z,12.03
2019-02-02T06:43:57.982Z,13.90
2019-02-02T06:46:27.844Z,11.40
2019-02-02T06:48:57.565Z,12.90
2019-02-02T06:51:27.677Z,12.83
2019-02-02T06:53:58.011Z,16.50
2019-02-02T06:56:27.669Z,13.50
2019-02-02T06:58:57.982Z,15.87
2019-02-02T07:01:27.656Z,18.03
2019-02-02T07:03:57.288Z,14.07
2019-02-02T07:06:27.262Z,14.90
2019-02-02T07:08:57.175Z,14.57
2019-02-02T07:11:26.865Z,10.30
2019-02-02T07:13:56.610Z,11.57
2019-02-02T07:16:26.189Z,14.50
2019-02-02T07:18:56.879Z,15.07
2019-02-02T07:21:26.442Z,10.47
2019-02-02T07:23:56.240Z,11.27
2019-02-02T07:26:26.054Z,14.93
2019-02-02T07:28:56.081Z,13.03
2019-02-02T07:31:25.677Z,12.47
2019-02-02T07:33:56.130Z,16.53
2019-02-02T07:36:25.923Z,19.10
2019-02-02T07:38:55.878Z,14.93
2019-02-02T07:41:25.535Z,14.00
2019-02-02T07:43:55.266Z,15.70
2019-02-02T07:46:24.903Z,13.93
2019-02-02T07:48:54.491Z,18.63
2019-02-02T07:51:24.407Z,16.27
2019-02-02T07:53:54.040Z,19.10
2019-02-02T07:56:23.676Z,13.03
2019-02-02T07:58:53.477Z,15.77
2019-02-02T08:01:23.060Z,15.10
2019-02-02T08:03:52.899Z,11.57
2019-02-02T08:06:22.943Z,11.40
2019-02-02T08:08:52.717Z,16.80
2019-02-02T08:11:22.419Z,15.63
2019-02-02T08:13:52.132Z,13.63
2019-02-02T08:16:22.603Z,15.83
2019-02-02T08:18:52.715Z,15.33
2019-02-02T08:21:23.791Z,14.37
2019-02-02T08:23:53.517Z,12.60
2019-02-02T08:26:23.709Z,17.73
2019-02-02T08:28:54.114Z,15.53
2019-02-02T08:31:24.018Z,14.03
2019-02-02T08:34:12.860Z,16.13
2019-02-02T08:36:43.022Z,15.87
2019-02-02T08:39:13.115Z,16.57
2019-02-02T08:41:43.202Z,17.43
2019-02-02T08:44:13.601Z,13.17
2019-02-02T08:46:43.935Z,19.00
2019-02-02T08:49:14.049Z,18.27
2019-02-02T08:51:44.381Z,16.97
2019-02-02T08:54:14.584Z,16.70
2019-02-02T08:56:46.733Z,16.90
2019-02-02T08:59:16.576Z,19.20
2019-02-02T09:01:48.189Z,16.33
2019-02-02T09:04:18.704Z,16.40
2019-02-02T09:06:48.607Z,17.73
2019-02-02T09:09:18.579Z,14.80
2019-02-02T09:11:48.900Z,15.87
2019-02-02T09:14:19.090Z,18.87
2019-02-02T09:16:49.138Z,13.73
2019-02-02T09:19:20.323Z,13.53
2019-02-02T09:21:50.606Z,17.60
2019-02-02T09:24:21.079Z,18.97
2019-02-02T09:26:50.858Z,17.33
2019-02-02T09:29:21.086Z,15.83
2019-02-02T09:31:51.458Z,18.17
2019-02-02T09:34:21.210Z,16.23
2019-02-02T09:36:51.724Z,16.10
2019-02-02T09:39:21.634Z,20.47
2019-02-02T09:41:51.789Z,21.20
2019-02-02T09:44:21.959Z,16.57
2019-02-02T09:46:51.878Z,21.03
2019-02-02T09:49:22.953Z,18.13
2019-02-02T09:51:53.273Z,17.87
2019-02-02T09:54:26.676Z,21.23
2019-02-02T09:56:54.889Z,16.10
2019-02-02T09:59:25.451Z,19.10
2019-02-02T10:01:55.834Z,17.33
2019-02-02T10:04:27.971Z,17.50
2019-02-02T10:07:07.244Z,20.47
2019-02-02T10:09:45.453Z,18.33
2019-02-02T10:12:21.585Z,15.57
2019-02-02T10:14:58.559Z,19.37
2019-02-02T10:17:35.528Z,22.03
2019-02-02T10:20:12.957Z,19.33
2019-02-02T10:22:49.987Z,16.70
2019-02-02T10:25:28.676Z,18.90
2019-02-02T10:28:07.710Z,16.13
2019-02-02T10:30:45.460Z,19.37
2019-02-02T10:33:22.137Z,16.97
2019-02-02T10:35:57.970Z,17.83
2019-02-02T10:38:29.320Z,18.27
2019-02-02T10:41:02.091Z,22.73
2019-02-02T10:43:32.252Z,18.73
2019-02-02T10:46:02.480Z,17.47
2019-02-02T10:48:32.762Z,23.90
2019-02-02T10:51:04.197Z,18.43
2019-02-02T10:53:34.558Z,21.37
2019-02-02T10:56:04.857Z,22.30
2019-02-02T10:58:34.794Z,20.27
2019-02-02T11:01:05.376Z,18.30
2019-02-02T11:03:35.054Z,17.10
2019-02-02T11:06:05.653Z,21.03
2019-02-02T11:08:37.297Z,23.43
2019-02-02T11:11:07.518Z,19.07
2019-02-02T11:13:37.596Z,19.80
2019-02-02T11:16:09.057Z,18.10
2019-02-02T11:18:39.079Z,21.33
2019-02-02T11:21:09.984Z,23.57
2019-02-02T11:23:39.853Z,20.07
2019-02-02T11:26:09.798Z,21.17
2019-02-02T11:28:40.072Z,21.33
2019-02-02T11:31:10.351Z,20.83
2019-02-02T11:33:40.137Z,17.60
2019-02-02T11:36:12.459Z,23.43
2019-02-02T11:38:42.765Z,20.23
2019-02-02T11:41:12.826Z,16.47
2019-02-02T11:43:42.761Z,23.90
2019-02-02T11:46:12.425Z,17.10
2019-02-02T11:48:42.098Z,22.13
2019-02-02T11:51:12.839Z,22.43
2019-02-02T11:53:42.828Z,21.47
2019-02-02T11:56:13.014Z,15.53
2019-02-02T11:58:43.194Z,25.20
2019-02-02T12:01:13.191Z,18.50
2019-02-02T12:03:43.095Z,21.30
2019-02-02T12:06:13.928Z,23.07
2019-02-02T12:08:43.669Z,21.47
2019-02-02T12:11:33.010Z,23.17
2019-02-02T12:14:02.660Z,24.10
2019-02-02T12:16:32.340Z,22.57
2019-02-02T12:19:02.311Z,20.03
2019-02-02T12:21:31.970Z,24.87
2019-02-02T12:24:12.743Z,21.23
2019-02-02T12:26:33.785Z,22.40
2019-02-02T12:29:03.836Z,26.57
2019-02-02T12:31:33.893Z,23.67
2019-02-02T12:34:04.069Z,29.30
2019-02-02T12:36:35.937Z,21.67
2019-02-02T12:39:10.326Z,22.50
2019-02-02T12:41:40.088Z,25.93
2019-02-02T12:44:10.403Z,27.57
2019-02-02T12:46:40.479Z,21.37
2019-02-02T12:49:23.279Z,28.13
2019-02-02T12:51:53.943Z,23.47
2019-02-02T12:54:24.633Z,27.97
2019-02-02T12:56:55.503Z,26.77
2019-02-02T12:59:26.039Z,22.27
2019-02-02T13:01:55.876Z,23.90
2019-02-02T13:04:26.858Z,24.00
2019-02-02T13:06:57.834Z,28.13
2019-02-02T13:09:29.043Z,22.70
2019-02-02T13:11:59.311Z,23.13
2019-02-02T13:14:30.570Z,27.47
2019-02-02T13:17:01.634Z,22.17
2019-02-02T13:19:31.706Z,29.33
2019-02-02T13:22:01.911Z,23.67
2019-02-02T13:24:31.706Z,24.43
2019-02-02T13:27:01.413Z,29.53
2019-02-02T13:29:31.461Z,25.87
2019-02-02T13:32:01.177Z,26.00
2019-02-02T13:34:31.501Z,25.27
2019-02-02T13:37:01.620Z,29.37
2019-02-02T13:39:31.755Z,24.67
2019-02-02T13:42:02.626Z,28.23
2019-02-02T13:44:32.685Z,25.97
2019-02-02T13:47:02.445Z,28.37
2019-02-02T13:49:32.328Z,28.20
2019-02-02T13:52:02.465Z,30.10
2019-02-02T13:54:32.206Z,26.97
2019-02-02T13:57:01.988Z,32.77
2019-02-02T13:59:32.033Z,27.07
2019-02-02T14:02:01.790Z,31.23
2019-02-02T14:04:31.622Z,28.47
2019-02-02T14:07:01.860Z,24.47
2019-02-02T14:09:31.553Z,25.90
2019-02-02T14:12:03.121Z,26.73
2019-02-02T14:14:33.084Z,24.77
2019-02-02T14:17:05.064Z,31.30
2019-02-02T14:19:34.975Z,25.67
2019-02-02T14:22:04.946Z,24.87
2019-02-02T14:24:35.947Z,23.13
2019-02-02T14:27:06.324Z,29.93
2019-02-02T14:29:36.500Z,23.80
2019-02-02T14:32:06.353Z,28.60
2019-02-02T14:34:40.261Z,23.97
2019-02-02T14:37:08.770Z,25.83
2019-02-02T14:39:38.469Z,21.93
2019-02-02T14:42:08.550Z,28.20
2019-02-02T14:44:38.366Z,23.57
2019-02-02T14:47:08.130Z,24.20
2019-02-02T14:49:38.318Z,24.47
2019-02-02T14:52:08.579Z,27.33
2019-02-02T14:54:39.117Z,30.57
2019-02-02T14:57:10.049Z,27.07
2019-02-02T14:59:40.133Z,23.70
2019-02-02T15:02:10.126Z,31.17
2019-02-02T15:04:40.468Z,30.63
2019-02-02T15:07:11.380Z,21.33
2019-02-02T15:09:41.404Z,23.33
2019-02-02T15:12:11.154Z,23.47
2019-02-02T15:14:41.112Z,31.10
2019-02-02T15:17:11.559Z,28.13
2019-02-02T15:19:41.428Z,24.93
2019-02-02T15:22:11.574Z,22.73
2019-02-02T15:24:41.430Z,28.67
2019-02-02T15:27:14.832Z,24.40
2019-02-02T15:29:45.972Z,28.30
2019-02-02T15:32:15.889Z,22.50
2019-02-02T15:34:45.702Z,29.53
2019-02-02T15:37:15.726Z,17.93
2019-02-02T15:39:46.020Z,28.90
2019-02-02T15:42:18.057Z,26.83
2019-02-02T15:44:47.901Z,33.47
2019-02-02T15:47:17.979Z,27.60
2019-02-02T15:49:48.833Z,27.93
2019-02-02T15:52:20.042Z,31.83
2019-02-02T15:54:50.849Z,23.80
2019-02-02T15:57:21.046Z,27.70
2019-02-02T15:59:50.812Z,30.27
2019-02-02T16:02:20.907Z,17.70
2019-02-02T16:04:51.979Z,27.03
2019-02-02T16:07:22.234Z,23.50
2019-02-02T16:10:15.285Z,25.03
2019-02-02T16:12:45.053Z,24.77
2019-02-02T16:15:15.481Z,27.93
2019-02-02T16:17:48.830Z,24.00
2019-02-02T16:20:20.761Z,23.13
2019-02-02T16:22:53.248Z,28.30
2019-02-02T16:25:23.311Z,23.47
2019-02-02T16:27:55.484Z,25.70
2019-02-02T16:30:26.701Z,17.43
2019-02-02T16:32:57.030Z,25.13
2019-02-02T16:35:27.286Z,16.70
2019-02-02T16:37:57.583Z,16.70
2019-02-02T16:40:28.605Z,27.27
2019-02-02T16:42:58.635Z,24.77
2019-02-02T16:45:29.939Z,26.87
2019-02-02T16:47:59.898Z,23.83
2019-02-02T16:50:30.547Z,25.40
2019-02-02T16:53:01.090Z,25.43
2019-02-02T16:55:31.194Z,29.07
2019-02-02T16:58:01.032Z,26.43
2019-02-02T17:00:32.894Z,24.90
2019-02-02T17:03:02.959Z,24.53
2019-02-02T17:05:32.906Z,26.87
2019-02-02T17:08:03.518Z,27.27
2019-02-02T17:10:37.964Z,24.47
2019-02-02T17:13:08.373Z,26.97
2019-02-02T17:15:39.400Z,29.50
2019-02-02T17:18:09.720Z,26.90
2019-02-02T17:20:41.892Z,31.37
2019-02-02T17:23:12.446Z,27.00
2019-02-02T17:25:42.433Z,28.17
2019-02-02T17:28:12.614Z,31.13
2019-02-02T17:30:42.819Z,25.70
2019-02-02T17:33:15.327Z,31.20
2019-02-02T17:35:46.227Z,29.23
2019-02-02T17:38:16.251Z,31.33
2019-02-02T17:40:46.113Z,24.87
2019-02-02T17:43:16.076Z,26.70
2019-02-02T17:45:46.162Z,27.00
2019-02-02T17:48:16.191Z,25.00
2019-02-02T17:50:46.362Z,27.60
2019-02-02T17:53:16.624Z,26.30
2019-02-02T17:55:46.445Z,29.70
2019-02-02T17:58:16.569Z,22.60
2019-02-02T18:01:01.023Z,25.03
2019-02-02T18:03:31.154Z,23.37
2019-02-02T18:06:01.195Z,25.70
2019-02-02T18:11:11.805Z,23.10
2019-02-02T18:13:41.653Z,22.23
2019-02-02T18:16:11.832Z,27.73
2019-02-02T18:18:42.091Z,23.57
2019-02-02T18:21:12.241Z,25.67
2019-02-02T18:23:43.121Z,28.23
2019-02-02T18:26:13.044Z,27.53
2019-02-02T18:28:43.035Z,24.27
2019-02-02T18:31:13.520Z,24.07
2019-02-02T18:33:44.479Z,23.00
2019-02-02T18:36:14.951Z,22.87
2019-02-02T18:38:45.374Z,22.40
2019-02-02T18:41:15.722Z,30.00
2019-02-02T18:43:45.710Z,24.47
2019-02-02T18:46:17.374Z,22.40
2019-02-02T18:48:48.287Z,21.13
2019-02-02T18:51:18.183Z,24.80
2019-02-02T18:53:48.316Z,31.20
2019-02-02T18:56:18.682Z,23.30
2019-02-02T18:58:48.879Z,24.80
2019-02-02T19:01:19.139Z,23.87
2019-02-02T19:03:49.678Z,21.73
2019-02-02T19:06:20.004Z,30.00
2019-02-02T19:08:50.067Z,29.20
2019-02-02T19:11:19.852Z,26.30
2019-02-02T19:13:50.908Z,26.27
2019-02-02T19:16:20.962Z,28.83
2019-02-02T19:18:50.930Z,25.67
2019-02-02T19:21:20.831Z,25.03
2019-02-02T19:23:51.328Z,30.70
2019-02-02T19:26:40.227Z,27.60
2019-02-02T19:29:10.383Z,27.30
2019-02-02T19:31:40.474Z,23.97
2019-02-02T19:34:10.578Z,24.33
2019-02-02T19:36:41.032Z,24.20
2019-02-02T19:39:11.362Z,25.03
2019-02-02T19:41:41.372Z,26.13
2019-02-02T19:44:11.608Z,27.23
2019-02-02T19:46:42.152Z,28.63
2019-02-02T19:49:12.609Z,26.40
2019-02-02T19:52:02.006Z,28.63
2019-02-02T19:54:32.328Z,30.43
2019-02-02T19:57:02.166Z,29.00
2019-02-02T19:59:32.226Z,26.53
2019-02-02T20:02:02.195Z,27.20
2019-02-02T20:04:33.237Z,22.77
2019-02-02T20:07:03.162Z,29.17
2019-02-02T20:09:34.475Z,27.00
2019-02-02T20:12:04.822Z,26.43
2019-02-02T20:14:35.084Z,25.10
2019-02-02T20:17:05.362Z,23.90
2019-02-02T20:19:35.799Z,26.23
2019-02-02T20:22:06.029Z,25.60
2019-02-02T20:24:36.053Z,24.07
2019-02-02T20:27:06.041Z,25.60
2019-02-02T20:29:37.201Z,30.30
2019-02-02T20:32:07.579Z,21.33
2019-02-02T20:34:37.845Z,24.47
2019-02-02T20:37:07.834Z,24.47
2019-02-02T20:39:37.839Z,25.70
2019-02-02T20:42:08.236Z,25.07
2019-02-02T20:44:38.308Z,24.17
2019-02-02T20:47:09.028Z,25.80
2019-02-02T20:49:39.041Z,26.30
2019-02-02T20:52:09.493Z,27.27
2019-02-02T20:54:58.168Z,25.00
2019-02-02T20:57:28.279Z,25.37
2019-02-02T20:59:58.503Z,27.80
2019-02-02T21:02:28.091Z,26.47
2019-02-02T21:04:57.747Z,22.27
2019-02-02T21:07:27.635Z,29.67
2019-02-02T21:09:57.902Z,24.47
2019-02-02T21:12:28.029Z,26.40
2019-02-02T21:14:58.157Z,29.07
2019-02-02T21:17:28.048Z,28.20
2019-02-02T21:19:58.110Z,27.67
2019-02-02T21:22:28.289Z,25.07
2019-02-02T21:24:58.390Z,25.10
2019-02-02T21:27:29.100Z,30.80
2019-02-02T21:29:59.459Z,25.10
2019-02-02T21:32:29.321Z,24.27
2019-02-02T21:34:59.186Z,28.83
2019-02-02T21:37:29.050Z,23.90
2019-02-02T21:39:59.019Z,26.53
2019-02-02T21:42:28.757Z,27.17
2019-02-02T21:44:58.509Z,23.67
2019-02-02T21:47:28.574Z,25.27
2019-02-02T21:49:58.514Z,23.10
2019-02-02T21:52:28.518Z,23.77
2019-02-02T21:54:58.478Z,25.83
2019-02-02T21:57:28.882Z,23.70
2019-02-02T21:59:59.301Z,26.40
2019-02-02T22:02:29.518Z,22.47
2019-02-02T22:04:59.629Z,17.77
2019-02-02T22:07:29.445Z,23.83
2019-02-02T22:09:59.562Z,24.50
2019-02-02T22:12:29.314Z,21.43
2019-02-02T22:14:59.451Z,20.97
2019-02-02T22:17:29.846Z,23.93
2019-02-02T22:20:00.311Z,25.20
2019-02-02T22:22:30.166Z,23.47
2019-02-02T22:25:00.703Z,24.57
2019-02-02T22:27:31.028Z,23.07
2019-02-02T22:30:01.560Z,21.43
2019-02-02T22:32:31.931Z,24.50
2019-02-02T22:35:02.101Z,21.20
2019-02-02T22:37:32.312Z,21.90
2019-02-02T22:40:02.273Z,22.97
2019-02-02T22:42:32.322Z,26.73
2019-02-02T22:45:02.589Z,27.03
2019-02-02T22:47:32.521Z,21.23
2019-02-02T22:50:02.720Z,24.77
2019-02-02T22:52:33.217Z,24.40
2019-02-02T22:55:04.422Z,24.93
2019-02-02T22:57:34.848Z,23.23
2019-02-02T23:00:11.804Z,23.53
2019-02-02T23:02:41.828Z,24.00
2019-02-02T23:05:44.547Z,24.23
2019-02-02T23:09:05.186Z,23.50
2019-02-02T23:11:57.532Z,23.83
2019-02-02T23:15:03.955Z,23.07
2019-02-02T23:17:33.628Z,26.10
2019-02-02T23:20:03.878Z,24.60
2019-02-02T23:22:33.530Z,25.07
2019-02-02T23:25:03.148Z,27.60
2019-02-02T23:27:33.111Z,28.23
2019-02-02T23:30:03.081Z,26.03
2019-02-02T23:32:33.412Z,23.33
2019-02-02T23:35:03.460Z,27.87
2019-02-02T23:37:33.945Z,22.20
2019-02-02T23:40:04.005Z,24.40
2019-02-02T23:42:34.305Z,23.43
2019-02-02T23:45:04.496Z,24.90
2019-02-02T23:47:34.714Z,22.03
2019-02-02T23:50:05.233Z,22.33
2019-02-02T23:52:35.347Z,21.67
2019-02-02T23:55:05.531Z,19.37
2019-02-02T23:57:36.274Z,20.43
